createdAt,value
2023-05-22T00:02:06.871Z,15.51
2023-05-22T00:04:37.824Z,15.45
2023-05-22T00:07:27.676Z,15.42
2023-05-22T00:09:56.437Z,15.38
2023-05-22T00:12:27.057Z,15.33
2023-05-22T00:14:56.051Z,15.29
2023-05-22T00:17:30.951Z,15.25
2023-05-22T00:20:08.871Z,15.22
2023-05-22T00:22:41.024Z,15.17
2023-05-22T00:25:10.435Z,15.17
2023-05-22T00:27:41.786Z,15.16
2023-05-22T00:30:13.658Z,15.12
2023-05-22T00:32:41.972Z,15.09
2023-05-22T00:35:30.551Z,15.07
2023-05-22T00:37:58.780Z,15.04
2023-05-22T00:40:27.105Z,15.02
2023-05-22T00:43:08.827Z,15.00
2023-05-22T00:45:40.945Z,15.00
2023-05-22T00:48:09.987Z,14.97
2023-05-22T00:50:38.841Z,14.93
2023-05-22T00:53:07.597Z,14.89
2023-05-22T00:55:36.229Z,14.83
2023-05-22T00:58:09.640Z,14.82
2023-05-22T01:00:42.378Z,14.82
2023-05-22T01:03:11.499Z,14.78
2023-05-22T01:05:40.828Z,14.77
2023-05-22T01:08:09.747Z,14.73
2023-05-22T01:10:43.167Z,14.70
2023-05-22T01:13:35.113Z,14.64
2023-05-22T01:16:19.137Z,14.65
2023-05-22T01:19:01.627Z,14.64
2023-05-22T01:21:54.598Z,14.60
2023-05-22T01:24:57.308Z,14.60
2023-05-22T01:28:03.850Z,14.58
2023-05-22T01:30:48.911Z,14.54
2023-05-22T01:33:19.448Z,14.53
2023-05-22T01:35:54.149Z,14.54
2023-05-22T01:38:43.338Z,14.53
2023-05-22T01:41:13.060Z,14.52
2023-05-22T01:43:42.617Z,14.49
2023-05-22T01:46:11.506Z,14.49
2023-05-22T01:48:42.417Z,14.45
2023-05-22T01:51:38.848Z,14.44
2023-05-22T01:54:18.607Z,14.43
2023-05-22T01:57:31.234Z,14.41
2023-05-22T02:00:07.238Z,14.38
2023-05-22T02:03:01.302Z,14.36
2023-05-22T02:05:35.877Z,14.32
2023-05-22T02:08:28.687Z,14.28
2023-05-22T02:10:58.051Z,14.26
2023-05-22T02:13:48.635Z,14.25
2023-05-22T02:16:21.937Z,14.25
2023-05-22T02:18:51.549Z,14.22
2023-05-22T02:21:23.390Z,14.17
2023-05-22T02:23:51.781Z,14.12
2023-05-22T02:26:21.554Z,14.06
2023-05-22T02:28:49.985Z,14.02
2023-05-22T02:31:21.684Z,13.97
2023-05-22T02:33:50.088Z,13.96
2023-05-22T02:36:21.826Z,13.92
2023-05-22T02:38:50.646Z,13.85
2023-05-22T02:41:39.210Z,13.79
2023-05-22T02:44:07.650Z,13.76
2023-05-22T02:46:38.728Z,13.71
2023-05-22T02:49:27.417Z,13.66
2023-05-22T02:51:55.810Z,13.61
2023-05-22T02:54:24.492Z,13.57
2023-05-22T02:56:53.004Z,13.55
2023-05-22T02:59:24.924Z,13.54
2023-05-22T03:01:56.106Z,13.49
2023-05-22T03:04:44.910Z,13.47
2023-05-22T03:07:20.604Z,13.47
2023-05-22T03:10:07.082Z,13.52
2023-05-22T03:12:35.780Z,13.53
2023-05-22T03:15:04.791Z,13.55
2023-05-22T03:17:53.481Z,13.58
2023-05-22T03:20:36.176Z,13.60
2023-05-22T03:23:05.361Z,13.62
2023-05-22T03:25:42.884Z,13.65
2023-05-22T03:28:31.574Z,13.71
2023-05-22T03:31:06.010Z,13.71
2023-05-22T03:33:53.411Z,13.71
2023-05-22T03:36:38.081Z,13.71
2023-05-22T03:39:06.578Z,13.72
2023-05-22T03:41:38.940Z,13.73
2023-05-22T03:44:07.324Z,13.77
2023-05-22T03:46:35.570Z,13.77
2023-05-22T03:49:04.117Z,13.78
2023-05-22T03:51:32.658Z,13.79
2023-05-22T03:54:01.876Z,13.80
2023-05-22T03:56:39.449Z,13.80
2023-05-22T03:59:08.498Z,13.79
2023-05-22T04:01:42.352Z,13.76
2023-05-22T04:04:31.562Z,13.76
2023-05-22T04:07:00.002Z,13.78
2023-05-22T04:09:36.810Z,13.81
2023-05-22T04:12:05.782Z,13.81
2023-05-22T04:14:34.136Z,13.87
2023-05-22T04:17:02.814Z,13.90
2023-05-22T04:19:40.024Z,13.95
2023-05-22T04:22:08.346Z,14.00
2023-05-22T04:24:39.893Z,14.06
2023-05-22T04:27:08.199Z,14.09
2023-05-22T04:29:42.127Z,14.11
2023-05-22T04:32:10.972Z,14.13
2023-05-22T04:34:39.518Z,14.14
2023-05-22T04:37:12.072Z,14.16
2023-05-22T04:40:10.593Z,14.20
2023-05-22T04:42:39.575Z,14.23
2023-05-22T04:45:08.937Z,14.28
2023-05-22T04:47:41.776Z,14.33
2023-05-22T04:50:33.043Z,14.37
2023-05-22T04:53:04.667Z,14.44
2023-05-22T04:55:37.276Z,14.52
2023-05-22T04:58:12.065Z,14.69
2023-05-22T05:00:40.837Z,14.98
2023-05-22T05:03:11.930Z,15.30
2023-05-22T05:05:40.290Z,15.37
2023-05-22T05:08:09.000Z,15.35
2023-05-22T05:10:38.097Z,15.35
2023-05-22T05:13:37.164Z,15.32
2023-05-22T05:16:26.575Z,15.23
2023-05-22T05:19:09.490Z,15.23
2023-05-22T05:22:08.452Z,15.26
2023-05-22T05:24:40.354Z,15.34
2023-05-22T05:27:08.638Z,15.43
2023-05-22T05:29:37.213Z,15.55
2023-05-22T05:32:06.071Z,15.67
2023-05-22T05:34:41.638Z,15.93
2023-05-22T05:37:09.959Z,16.54
2023-05-22T05:39:41.863Z,17.23
2023-05-22T05:42:10.508Z,17.71
2023-05-22T05:44:38.893Z,18.12
2023-05-22T05:47:28.188Z,18.43
2023-05-22T05:49:56.685Z,18.62
2023-05-22T05:52:27.326Z,18.63
2023-05-22T05:55:07.784Z,18.74
2023-05-22T05:57:36.870Z,19.00
2023-05-22T06:00:14.698Z,19.12
2023-05-22T06:02:43.820Z,18.95
2023-05-22T06:05:21.715Z,19.10
2023-05-22T06:07:59.838Z,19.32
2023-05-22T06:10:28.347Z,19.52
2023-05-22T06:12:57.133Z,19.73
2023-05-22T06:15:25.863Z,19.99
2023-05-22T06:17:57.956Z,20.06
2023-05-22T06:20:26.286Z,20.13
2023-05-22T06:22:54.765Z,20.29
2023-05-22T06:25:26.299Z,20.43
2023-05-22T06:27:54.885Z,20.44
2023-05-22T06:30:38.841Z,20.73
2023-05-22T06:33:09.256Z,20.39
2023-05-22T06:35:38.270Z,20.08
2023-05-22T06:38:06.973Z,20.06
2023-05-22T06:40:35.337Z,20.29
2023-05-22T06:43:03.637Z,20.38
2023-05-22T06:45:31.955Z,20.58
2023-05-22T06:48:00.462Z,20.70
2023-05-22T06:50:29.243Z,20.81
2023-05-22T06:52:58.775Z,21.05
2023-05-22T06:55:27.995Z,21.20
2023-05-22T06:57:56.345Z,21.15
2023-05-22T07:00:25.487Z,21.00
2023-05-22T07:02:53.772Z,20.94
2023-05-22T07:05:22.506Z,20.83
2023-05-22T07:07:51.197Z,20.68
2023-05-22T07:10:20.155Z,20.72
2023-05-22T07:12:48.688Z,20.87
2023-05-22T07:15:17.155Z,20.94
2023-05-22T07:17:45.582Z,21.05
2023-05-22T07:20:15.977Z,21.26
2023-05-22T07:22:44.426Z,21.56
2023-05-22T07:25:13.072Z,21.75
2023-05-22T07:27:43.939Z,21.67
2023-05-22T07:30:13.280Z,21.52
2023-05-22T07:32:42.121Z,21.27
2023-05-22T07:35:14.482Z,21.05
2023-05-22T07:37:48.249Z,21.08
2023-05-22T07:40:26.557Z,21.13
2023-05-22T07:42:55.420Z,21.25
2023-05-22T07:45:23.859Z,21.17
2023-05-22T07:47:54.082Z,20.99
2023-05-22T07:50:26.813Z,20.81
2023-05-22T07:53:04.795Z,20.79
2023-05-22T07:55:33.338Z,20.90
2023-05-22T07:58:04.465Z,20.98
2023-05-22T08:00:42.200Z,21.11
2023-05-22T08:03:12.520Z,21.20
2023-05-22T08:05:44.412Z,21.17
2023-05-22T08:08:13.476Z,21.24
2023-05-22T08:11:01.932Z,21.24
2023-05-22T08:13:31.541Z,21.33
2023-05-22T08:16:01.312Z,21.52
2023-05-22T08:18:30.777Z,21.71
2023-05-22T08:21:02.635Z,21.84
2023-05-22T08:23:39.036Z,21.97
2023-05-22T08:26:09.082Z,22.14
2023-05-22T08:28:39.964Z,22.23
2023-05-22T08:31:08.283Z,22.36
2023-05-22T08:33:37.094Z,22.21
2023-05-22T08:36:06.315Z,21.94
2023-05-22T08:38:34.568Z,21.69
2023-05-22T08:41:13.389Z,21.49
2023-05-22T08:43:42.256Z,21.54
2023-05-22T08:46:11.454Z,21.73
2023-05-22T08:48:42.261Z,22.04
2023-05-22T08:51:15.416Z,22.22
2023-05-22T08:53:44.526Z,22.30
2023-05-22T08:56:13.167Z,22.60
2023-05-22T08:58:42.049Z,22.73
2023-05-22T09:01:11.215Z,22.73
2023-05-22T09:03:40.011Z,22.46
2023-05-22T09:06:11.388Z,22.53
2023-05-22T09:08:39.708Z,22.41
2023-05-22T09:11:08.004Z,22.51
2023-05-22T09:13:39.750Z,22.62
2023-05-22T09:16:13.078Z,22.73
2023-05-22T09:18:42.788Z,22.93
2023-05-22T09:21:25.978Z,23.03
2023-05-22T09:24:01.888Z,22.88
2023-05-22T09:26:33.776Z,22.80
2023-05-22T09:29:03.256Z,22.83
2023-05-22T09:31:32.272Z,22.55
2023-05-22T09:34:00.923Z,22.43
2023-05-22T09:36:33.565Z,22.61
2023-05-22T09:39:03.081Z,22.69
2023-05-22T09:41:36.778Z,22.55
2023-05-22T09:44:15.660Z,22.29
2023-05-22T09:46:47.791Z,22.07
2023-05-22T09:49:17.443Z,21.94
2023-05-22T09:51:52.543Z,21.89
2023-05-22T09:54:21.818Z,21.95
2023-05-22T09:56:51.406Z,21.96
2023-05-22T09:59:27.067Z,21.93
2023-05-22T10:01:55.912Z,22.10
2023-05-22T10:04:28.269Z,22.43
2023-05-22T10:06:57.990Z,22.78
2023-05-22T10:09:32.924Z,23.09
2023-05-22T10:12:06.199Z,23.23
2023-05-22T10:14:36.017Z,23.37
2023-05-22T10:17:06.798Z,23.59
2023-05-22T10:19:40.343Z,23.60
2023-05-22T10:22:15.144Z,23.60
2023-05-22T10:24:44.040Z,23.41
2023-05-22T10:27:12.997Z,23.50
2023-05-22T10:29:50.144Z,23.57
2023-05-22T10:32:47.038Z,23.71
2023-05-22T10:35:32.526Z,23.88
2023-05-22T10:38:13.449Z,23.96
2023-05-22T10:40:45.413Z,24.22
2023-05-22T10:43:14.256Z,24.29
2023-05-22T10:45:46.742Z,24.01
2023-05-22T10:48:16.468Z,23.76
2023-05-22T10:50:54.722Z,23.68
2023-05-22T10:53:23.367Z,23.47
2023-05-22T10:55:53.904Z,23.26
2023-05-22T10:58:32.170Z,23.21
2023-05-22T11:01:16.724Z,23.27
2023-05-22T11:04:01.993Z,23.34
2023-05-22T11:06:50.483Z,23.36
2023-05-22T11:09:20.776Z,23.36
2023-05-22T11:12:16.572Z,23.35
2023-05-22T11:14:56.762Z,23.48
2023-05-22T11:17:28.016Z,23.76
2023-05-22T11:20:02.176Z,23.99
2023-05-22T11:22:41.107Z,24.25
2023-05-22T11:25:17.028Z,24.53
2023-05-22T11:27:46.760Z,24.74
2023-05-22T11:30:16.625Z,24.72
2023-05-22T11:32:46.483Z,24.54
2023-05-22T11:35:19.689Z,24.21
2023-05-22T11:37:50.493Z,24.04
2023-05-22T11:40:21.542Z,23.88
2023-05-22T11:42:50.833Z,23.85
2023-05-22T11:45:19.611Z,23.88
2023-05-22T11:47:49.099Z,23.94
2023-05-22T11:50:29.414Z,24.15
2023-05-22T11:53:04.096Z,24.32
2023-05-22T11:55:33.801Z,24.39
2023-05-22T11:58:03.049Z,24.41
2023-05-22T12:00:32.628Z,24.52
2023-05-22T12:03:01.767Z,24.38
2023-05-22T12:05:33.061Z,24.07
2023-05-22T12:08:01.662Z,23.72
2023-05-22T12:10:31.758Z,23.66
2023-05-22T12:13:03.331Z,23.57
2023-05-22T12:15:32.349Z,23.51
2023-05-22T12:18:00.692Z,23.55
2023-05-22T12:20:31.115Z,23.47
2023-05-22T12:23:00.074Z,23.52
2023-05-22T12:25:37.362Z,23.53
2023-05-22T12:28:09.229Z,23.52
2023-05-22T12:30:42.287Z,23.45
2023-05-22T12:33:15.308Z,23.38
2023-05-22T12:35:44.431Z,23.25
2023-05-22T12:38:13.795Z,23.18
2023-05-22T12:40:45.187Z,23.13
2023-05-22T12:43:13.411Z,23.09
2023-05-22T12:45:42.575Z,23.17
2023-05-22T12:48:12.272Z,23.33
2023-05-22T12:50:41.630Z,23.53
2023-05-22T12:53:11.001Z,23.68
2023-05-22T12:55:39.707Z,23.85
2023-05-22T12:58:08.182Z,23.91
2023-05-22T13:00:36.613Z,23.95
2023-05-22T13:03:06.844Z,24.05
2023-05-22T13:05:35.264Z,24.03
2023-05-22T13:08:03.768Z,24.00
2023-05-22T13:10:32.419Z,23.86
2023-05-22T13:13:00.837Z,23.82
2023-05-22T13:15:29.851Z,23.80
2023-05-22T13:17:58.157Z,23.89
2023-05-22T13:20:26.490Z,23.96
2023-05-22T13:22:55.181Z,24.02
2023-05-22T13:25:23.824Z,23.90
2023-05-22T13:27:52.791Z,23.68
2023-05-22T13:30:21.324Z,23.51
2023-05-22T13:32:52.693Z,23.40
2023-05-22T13:35:21.202Z,23.35
2023-05-22T13:37:49.931Z,23.29
2023-05-22T13:40:18.506Z,23.32
2023-05-22T13:42:46.937Z,23.32
2023-05-22T13:45:18.909Z,23.30
2023-05-22T13:47:47.350Z,23.26
2023-05-22T13:50:15.742Z,23.30
2023-05-22T13:52:53.233Z,23.42
2023-05-22T13:55:21.727Z,23.70
2023-05-22T13:57:50.719Z,23.94
2023-05-22T14:00:20.363Z,24.02
2023-05-22T14:02:49.492Z,23.99
2023-05-22T14:05:18.143Z,23.93
2023-05-22T14:07:46.515Z,23.70
2023-05-22T14:10:14.771Z,23.70
2023-05-22T14:12:43.073Z,23.63
2023-05-22T14:15:11.761Z,23.46
2023-05-22T14:17:40.070Z,23.32
2023-05-22T14:20:08.943Z,23.22
2023-05-22T14:22:55.318Z,23.17
2023-05-22T14:25:28.032Z,23.11
2023-05-22T14:27:56.428Z,23.09
2023-05-22T14:30:25.137Z,23.08
2023-05-22T14:32:53.579Z,23.05
2023-05-22T14:35:22.014Z,22.98
2023-05-22T14:37:50.955Z,22.95
2023-05-22T14:40:19.399Z,22.87
2023-05-22T14:42:47.641Z,22.81
2023-05-22T14:45:16.243Z,22.83
2023-05-22T14:47:45.266Z,22.81
2023-05-22T14:50:19.844Z,22.71
2023-05-22T14:52:49.986Z,22.67
2023-05-22T14:55:18.425Z,22.66
2023-05-22T14:57:46.592Z,22.64
2023-05-22T15:00:18.816Z,22.63
2023-05-22T15:02:47.325Z,22.64
2023-05-22T15:05:16.852Z,22.60
2023-05-22T15:07:49.010Z,22.58
2023-05-22T15:10:20.410Z,22.55
2023-05-22T15:12:48.668Z,22.52
2023-05-22T15:15:17.027Z,22.47
2023-05-22T15:17:45.737Z,22.46
2023-05-22T15:20:14.226Z,22.49
2023-05-22T15:22:42.664Z,22.48
2023-05-22T15:25:15.451Z,22.50
2023-05-22T15:27:45.301Z,22.46
2023-05-22T15:30:16.301Z,22.39
2023-05-22T15:32:45.725Z,22.38
2023-05-22T15:35:16.613Z,22.37
2023-05-22T15:37:45.135Z,22.38
2023-05-22T15:40:18.140Z,22.39
2023-05-22T15:42:46.684Z,22.37
2023-05-22T15:45:14.883Z,22.32
2023-05-22T15:47:43.483Z,22.32
2023-05-22T15:50:12.025Z,22.28
2023-05-22T15:52:40.796Z,22.32
2023-05-22T15:55:09.842Z,22.37
2023-05-22T15:57:38.628Z,22.35
2023-05-22T16:00:08.758Z,22.31
2023-05-22T16:02:37.184Z,22.27
2023-05-22T16:05:05.963Z,22.27
2023-05-22T16:07:34.678Z,22.19
2023-05-22T16:10:04.316Z,22.14
2023-05-22T16:12:33.381Z,22.13
2023-05-22T16:15:02.876Z,22.16
2023-05-22T16:17:32.392Z,22.18
2023-05-22T16:20:01.411Z,22.13
2023-05-22T16:22:44.134Z,22.10
2023-05-22T16:25:17.043Z,22.05
2023-05-22T16:27:45.706Z,22.07
2023-05-22T16:30:17.168Z,22.07
2023-05-22T16:32:46.821Z,22.07
2023-05-22T16:35:16.459Z,22.07
2023-05-22T16:37:45.435Z,22.09
2023-05-22T16:40:14.306Z,22.11
2023-05-22T16:42:43.370Z,22.13
2023-05-22T16:45:12.410Z,22.12
2023-05-22T16:47:40.760Z,22.11
2023-05-22T16:50:09.409Z,22.07
2023-05-22T16:52:37.648Z,22.04
2023-05-22T16:55:06.989Z,21.99
2023-05-22T16:57:35.265Z,21.97
2023-05-22T17:00:04.523Z,21.92
2023-05-22T17:02:33.737Z,21.86
2023-05-22T17:05:02.440Z,21.82
2023-05-22T17:07:34.637Z,21.78
2023-05-22T17:10:03.432Z,21.74
2023-05-22T17:12:31.977Z,21.69
2023-05-22T17:15:02.309Z,21.65
2023-05-22T17:17:31.245Z,21.65
2023-05-22T17:20:01.884Z,21.62
2023-05-22T17:22:30.412Z,21.58
2023-05-22T17:24:59.295Z,21.53
2023-05-22T17:27:36.034Z,21.47
2023-05-22T17:30:07.667Z,21.41
2023-05-22T17:32:36.174Z,21.35
2023-05-22T17:35:06.946Z,21.30
2023-05-22T17:37:35.996Z,21.22
2023-05-22T17:40:05.474Z,21.13
2023-05-22T17:42:34.296Z,21.09
2023-05-22T17:45:02.711Z,21.04
2023-05-22T17:47:31.685Z,20.95
2023-05-22T17:50:00.220Z,20.89
2023-05-22T17:52:28.934Z,20.84
2023-05-22T17:54:57.598Z,20.79
2023-05-22T17:57:37.622Z,20.73
2023-05-22T18:00:10.139Z,20.66
2023-05-22T18:02:39.969Z,20.62
2023-05-22T18:05:09.640Z,20.57
2023-05-22T18:07:38.033Z,20.53
2023-05-22T18:10:07.256Z,20.48
2023-05-22T18:12:38.032Z,20.38
2023-05-22T18:15:09.777Z,20.30
2023-05-22T18:17:38.722Z,20.22
2023-05-22T18:20:09.528Z,20.16
2023-05-22T18:22:39.640Z,20.08
2023-05-22T18:25:09.811Z,20.01
2023-05-22T18:27:38.183Z,19.93
2023-05-22T18:30:09.373Z,19.84
2023-05-22T18:32:40.580Z,19.76
2023-05-22T18:35:09.703Z,19.68
2023-05-22T18:37:49.321Z,19.63
2023-05-22T18:40:25.964Z,19.56
2023-05-22T18:42:58.773Z,19.47
2023-05-22T18:45:35.312Z,19.41
2023-05-22T18:48:05.211Z,19.34
2023-05-22T18:50:34.566Z,19.28
2023-05-22T18:53:03.226Z,19.23
2023-05-22T18:55:41.929Z,19.19
2023-05-22T18:58:14.327Z,19.13
2023-05-22T19:00:52.391Z,19.11
2023-05-22T19:03:26.761Z,19.06
2023-05-22T19:05:58.508Z,19.02
2023-05-22T19:08:33.845Z,18.96
2023-05-22T19:11:05.390Z,18.88
2023-05-22T19:13:33.901Z,18.83
2023-05-22T19:16:06.725Z,18.75
2023-05-22T19:18:36.773Z,18.67
2023-05-22T19:21:26.615Z,18.63
2023-05-22T19:23:55.686Z,18.58
2023-05-22T19:26:24.437Z,18.54
2023-05-22T19:28:59.480Z,18.51
2023-05-22T19:31:40.119Z,18.47
2023-05-22T19:34:16.836Z,18.40
2023-05-22T19:37:07.018Z,18.34
2023-05-22T19:39:38.095Z,18.30
2023-05-22T19:42:08.584Z,18.27
2023-05-22T19:44:40.165Z,18.24
2023-05-22T19:47:11.575Z,18.18
2023-05-22T19:49:42.573Z,18.14
2023-05-22T19:52:11.647Z,18.12
2023-05-22T19:54:43.249Z,18.09
2023-05-22T19:57:12.743Z,18.07
2023-05-22T19:59:46.869Z,18.07
2023-05-22T20:02:16.160Z,18.05
2023-05-22T20:04:44.732Z,18.03
2023-05-22T20:07:18.572Z,18.01
2023-05-22T20:09:52.676Z,17.97
2023-05-22T20:12:21.100Z,17.92
2023-05-22T20:14:52.781Z,17.89
2023-05-22T20:17:22.889Z,17.93
2023-05-22T20:19:51.500Z,17.96
2023-05-22T20:22:41.082Z,17.97
2023-05-22T20:25:10.479Z,17.95
2023-05-22T20:27:40.504Z,17.97
2023-05-22T20:30:12.785Z,17.92
2023-05-22T20:32:45.986Z,17.89
2023-05-22T20:35:18.817Z,17.86
2023-05-22T20:37:53.481Z,17.84
2023-05-22T20:40:27.203Z,17.82
2023-05-22T20:42:57.240Z,17.79
2023-05-22T20:45:26.797Z,17.73
2023-05-22T20:47:57.710Z,17.66
2023-05-22T20:50:31.235Z,17.59
2023-05-22T20:53:00.914Z,17.53
2023-05-22T20:55:36.351Z,17.49
2023-05-22T20:58:04.709Z,17.51
2023-05-22T21:00:42.187Z,17.52
2023-05-22T21:03:11.851Z,17.50
2023-05-22T21:05:41.059Z,17.45
2023-05-22T21:08:12.704Z,17.40
2023-05-22T21:10:41.567Z,17.38
2023-05-22T21:13:22.605Z,17.35
2023-05-22T21:15:51.572Z,17.31
2023-05-22T21:18:43.827Z,17.31
2023-05-22T21:21:17.882Z,17.26
2023-05-22T21:23:48.318Z,17.21
2023-05-22T21:26:26.679Z,17.15
2023-05-22T21:28:55.823Z,17.11
2023-05-22T21:31:24.137Z,17.07
2023-05-22T21:33:53.061Z,17.02
2023-05-22T21:36:21.821Z,16.92
2023-05-22T21:38:50.289Z,16.82
2023-05-22T21:41:18.898Z,16.74
2023-05-22T21:43:47.580Z,16.64
2023-05-22T21:46:23.613Z,16.59
2023-05-22T21:49:05.435Z,16.56
2023-05-22T21:51:34.205Z,16.53
2023-05-22T21:54:05.321Z,16.50
2023-05-22T21:56:33.984Z,16.50
2023-05-22T21:59:02.233Z,16.48
2023-05-22T22:01:30.740Z,16.45
2023-05-22T22:04:07.273Z,16.38
2023-05-22T22:06:37.253Z,16.33
2023-05-22T22:09:06.023Z,16.29
2023-05-22T22:11:36.275Z,16.27
2023-05-22T22:14:05.731Z,16.27
2023-05-22T22:16:36.827Z,16.25
2023-05-22T22:19:05.198Z,16.22
2023-05-22T22:21:45.661Z,16.15
2023-05-22T22:24:23.449Z,16.11
2023-05-22T22:26:56.888Z,16.08
2023-05-22T22:29:33.972Z,16.09
2023-05-22T22:32:02.762Z,16.08
2023-05-22T22:34:31.728Z,16.03
2023-05-22T22:37:03.438Z,15.98
2023-05-22T22:39:31.876Z,15.97
2023-05-22T22:42:04.540Z,15.99
2023-05-22T22:44:33.008Z,16.01
2023-05-22T22:47:09.854Z,16.03
2023-05-22T22:49:41.408Z,16.04
2023-05-22T22:52:09.689Z,16.04
2023-05-22T22:54:38.600Z,16.03
2023-05-22T22:57:29.995Z,16.00
2023-05-22T22:59:58.141Z,15.99
2023-05-22T23:02:26.984Z,15.98
2023-05-22T23:04:55.301Z,15.97
2023-05-22T23:07:33.331Z,15.94
2023-05-22T23:10:07.323Z,15.91
2023-05-22T23:12:39.005Z,15.87
2023-05-22T23:15:48.377Z,15.83
2023-05-22T23:18:36.845Z,15.80
2023-05-22T23:21:08.711Z,15.76
2023-05-22T23:24:00.890Z,15.72
2023-05-22T23:26:35.346Z,15.64
2023-05-22T23:29:13.363Z,15.60
2023-05-22T23:32:07.018Z,15.57
2023-05-22T23:34:39.282Z,15.54
2023-05-22T23:37:56.446Z,15.52
2023-05-22T23:40:25.963Z,15.49
2023-05-22T23:43:14.928Z,15.47
2023-05-22T23:45:45.675Z,15.43
2023-05-22T23:48:14.605Z,15.38
2023-05-22T23:50:45.922Z,15.32
2023-05-22T23:53:17.965Z,15.25
2023-05-22T23:56:07.447Z,15.21
2023-05-22T23:58:35.861Z,15.18
